createdAt,value
2022-11-05T00:00:37.542Z,9.80
2022-11-05T00:05:58.014Z,9.70
2022-11-05T00:10:59.837Z,9.70
2022-11-05T00:16:39.483Z,9.70
2022-11-05T00:21:59.712Z,9.60
2022-11-05T00:27:01.431Z,9.50
2022-11-05T00:32:03.970Z,9.40
2022-11-05T00:37:05.726Z,9.30
2022-11-05T00:42:26.199Z,9.20
2022-11-05T00:47:47.137Z,9.20
2022-11-05T00:52:57.556Z,9.10
2022-11-05T00:58:00.553Z,9.00
2022-11-05T01:03:08.672Z,8.70
2022-11-05T01:08:11.738Z,8.80
2022-11-05T01:13:16.302Z,9.20
2022-11-05T01:18:19.065Z,9.40
2022-11-05T01:23:21.261Z,9.50
2022-11-05T01:28:23.320Z,9.50
2022-11-05T01:33:25.374Z,9.50
2022-11-05T01:38:27.081Z,9.50
2022-11-05T01:43:47.244Z,9.50
2022-11-05T01:48:50.998Z,9.20
2022-11-05T01:54:08.488Z,9.10
2022-11-05T01:59:16.187Z,9.00
2022-11-05T02:04:31.960Z,9.00
2022-11-05T02:09:42.470Z,9.50
2022-11-05T02:14:44.205Z,9.50
2022-11-05T02:20:17.536Z,9.40
2022-11-05T02:25:37.239Z,9.50
2022-11-05T02:30:42.172Z,9.50
2022-11-05T02:36:13.891Z,9.30
2022-11-05T02:41:42.543Z,9.40
2022-11-05T02:46:58.031Z,9.20
2022-11-05T02:52:06.461Z,9.20
2022-11-05T02:57:08.739Z,9.20
2022-11-05T03:02:10.707Z,9.20
2022-11-05T03:07:46.905Z,9.00
2022-11-05T03:13:09.696Z,9.00
2022-11-05T03:18:25.536Z,9.10
2022-11-05T03:23:31.086Z,9.20
2022-11-05T03:28:36.679Z,9.30
2022-11-05T03:33:39.864Z,9.40
2022-11-05T03:38:46.674Z,9.60
2022-11-05T03:43:52.198Z,9.80
2022-11-05T03:48:56.742Z,9.80
2022-11-05T03:53:59.802Z,10.00
2022-11-05T03:59:02.742Z,9.80
2022-11-05T04:04:06.801Z,9.80
2022-11-05T04:09:28.771Z,9.90
2022-11-05T04:14:31.455Z,9.80
2022-11-05T04:20:02.477Z,9.80
2022-11-05T04:25:04.524Z,9.80
2022-11-05T04:30:18.723Z,9.80
2022-11-05T04:35:20.473Z,9.80
2022-11-05T04:40:22.422Z,9.70
2022-11-05T04:45:26.237Z,9.50
2022-11-05T04:50:28.478Z,9.40
2022-11-05T04:55:30.346Z,9.30
2022-11-05T05:00:32.123Z,9.30
2022-11-05T05:05:33.893Z,9.30
2022-11-05T05:10:35.646Z,9.30
2022-11-05T05:15:37.684Z,9.30
2022-11-05T05:20:58.125Z,9.30
2022-11-05T05:26:00.482Z,9.40
2022-11-05T05:31:02.274Z,9.30
2022-11-05T05:36:09.976Z,9.30
2022-11-05T05:41:12.973Z,9.30
2022-11-05T05:46:16.771Z,9.50
2022-11-05T05:51:19.173Z,9.70
2022-11-05T05:56:21.047Z,9.50
2022-11-05T06:01:23.127Z,9.50
2022-11-05T06:06:24.954Z,9.50
2022-11-05T06:11:27.191Z,9.60
2022-11-05T06:16:29.167Z,9.60
2022-11-05T06:21:30.950Z,9.60
2022-11-05T06:26:32.703Z,9.50
2022-11-05T06:31:34.430Z,9.50
2022-11-05T06:36:36.147Z,9.50
2022-11-05T06:42:04.151Z,9.50
2022-11-05T06:47:00.378Z,9.50
2022-11-05T06:52:02.080Z,9.60
2022-11-05T06:57:04.474Z,9.60
2022-11-05T07:02:07.244Z,9.60
2022-11-05T07:07:09.939Z,9.60
2022-11-05T07:12:11.665Z,9.50
2022-11-05T07:17:13.412Z,9.60
2022-11-05T07:22:15.189Z,9.70
2022-11-05T07:27:17.316Z,9.80
2022-11-05T07:32:19.098Z,9.90
2022-11-05T07:37:20.864Z,10.10
2022-11-05T07:42:22.689Z,10.10
2022-11-05T07:47:24.397Z,10.10
2022-11-05T07:52:26.194Z,10.30
2022-11-05T07:57:27.918Z,10.30
2022-11-05T08:02:29.746Z,10.30
2022-11-05T08:07:31.625Z,10.30
2022-11-05T08:12:33.990Z,10.30
2022-11-05T08:17:36.574Z,10.30
2022-11-05T08:22:41.464Z,10.30
2022-11-05T08:27:43.302Z,10.30
2022-11-05T08:32:45.046Z,10.30
2022-11-05T08:37:46.769Z,10.40
2022-11-05T08:42:48.486Z,10.40
2022-11-05T08:47:50.471Z,10.40
2022-11-05T08:52:52.211Z,10.40
2022-11-05T08:57:58.181Z,10.40
2022-11-05T09:03:01.088Z,10.50
2022-11-05T09:08:03.197Z,10.60
2022-11-05T09:13:05.182Z,10.70
2022-11-05T09:18:07.287Z,10.80
2022-11-05T09:23:10.590Z,10.80
2022-11-05T09:28:17.178Z,11.00
2022-11-05T09:33:22.471Z,11.20
2022-11-05T09:38:24.238Z,11.40
2022-11-05T09:43:36.998Z,11.40
2022-11-05T09:48:40.418Z,11.50
2022-11-05T09:53:44.042Z,11.60
2022-11-05T09:58:51.731Z,11.60
2022-11-05T10:03:58.318Z,11.80
2022-11-05T10:09:10.598Z,11.80
2022-11-05T10:14:20.066Z,11.70
2022-11-05T10:19:26.192Z,11.90
2022-11-05T10:24:28.361Z,12.10
2022-11-05T10:29:33.104Z,12.20
2022-11-05T10:34:38.019Z,12.20
2022-11-05T10:39:39.796Z,12.20
2022-11-05T10:45:01.975Z,12.40
2022-11-05T10:50:10.771Z,12.60
2022-11-05T10:55:22.847Z,13.00
2022-11-05T11:00:28.369Z,13.40
2022-11-05T11:05:40.839Z,14.00
2022-11-05T11:10:55.708Z,16.60
2022-11-05T11:16:15.457Z,17.00
2022-11-05T11:21:26.194Z,16.30
2022-11-05T11:26:37.654Z,15.30
2022-11-05T11:31:40.383Z,14.80
2022-11-05T11:36:53.710Z,14.60
2022-11-05T11:42:00.326Z,14.50
2022-11-05T11:47:22.830Z,15.20
2022-11-05T11:52:44.887Z,16.80
2022-11-05T11:58:08.136Z,16.00
2022-11-05T12:03:48.037Z,14.80
2022-11-05T12:09:47.564Z,14.00
2022-11-05T12:15:12.449Z,13.90
2022-11-05T12:21:04.694Z,13.80
2022-11-05T12:26:47.461Z,13.70
2022-11-05T12:32:24.480Z,13.50
2022-11-05T12:38:03.440Z,13.40
2022-11-05T12:43:43.794Z,13.10
2022-11-05T12:49:25.841Z,13.00
2022-11-05T12:55:21.855Z,12.80
2022-11-05T13:00:25.846Z,12.70
2022-11-05T13:05:39.086Z,12.70
2022-11-05T13:10:58.212Z,12.70
2022-11-05T13:16:12.227Z,12.70
2022-11-05T13:21:16.947Z,12.80
2022-11-05T13:26:26.626Z,13.00
2022-11-05T13:31:41.241Z,13.30
2022-11-05T13:37:20.482Z,13.00
2022-11-05T13:42:43.474Z,12.90
2022-11-05T13:47:48.153Z,12.90
2022-11-05T13:53:26.068Z,12.80
2022-11-05T13:58:52.946Z,12.90
2022-11-05T14:03:56.657Z,12.90
2022-11-05T14:09:11.147Z,12.80
2022-11-05T14:14:23.221Z,12.70
2022-11-05T14:19:32.962Z,13.50
2022-11-05T14:24:37.868Z,14.20
2022-11-05T14:29:44.891Z,13.80
2022-11-05T14:35:21.292Z,13.30
2022-11-05T14:40:36.216Z,12.90
2022-11-05T14:46:03.433Z,12.70
2022-11-05T14:51:32.891Z,12.50
2022-11-05T14:56:50.525Z,12.40
2022-11-05T15:02:15.200Z,12.30
2022-11-05T15:07:33.668Z,12.20
2022-11-05T15:12:48.838Z,12.00
2022-11-05T15:18:10.665Z,12.10
2022-11-05T15:23:24.967Z,11.90
2022-11-05T15:28:32.562Z,11.90
2022-11-05T15:33:34.368Z,11.80
2022-11-05T15:38:36.373Z,11.70
2022-11-05T15:43:47.738Z,11.60
2022-11-05T15:49:04.683Z,11.50
2022-11-05T15:54:29.141Z,11.30
2022-11-05T15:59:30.232Z,11.40
2022-11-05T16:04:34.569Z,11.30
2022-11-05T16:09:39.918Z,11.10
2022-11-05T16:14:42.326Z,11.10
2022-11-05T16:19:45.828Z,10.90
2022-11-05T16:24:49.235Z,10.90
2022-11-05T16:29:58.007Z,10.80
2022-11-05T16:35:02.665Z,10.80
2022-11-05T16:40:14.439Z,10.60
2022-11-05T16:45:18.157Z,10.60
2022-11-05T16:50:25.913Z,10.50
2022-11-05T16:55:28.345Z,10.30
2022-11-05T17:00:30.111Z,10.10
2022-11-05T17:05:32.257Z,10.10
2022-11-05T17:10:34.139Z,10.00
2022-11-05T17:15:35.982Z,10.00
2022-11-05T17:20:49.801Z,9.90
2022-11-05T17:25:54.194Z,9.80
2022-11-05T17:30:59.309Z,9.70
2022-11-05T17:36:09.083Z,9.70
2022-11-05T17:41:16.063Z,9.80
2022-11-05T17:46:18.733Z,9.70
2022-11-05T17:51:21.124Z,9.40
2022-11-05T17:56:32.544Z,9.20
2022-11-05T18:01:37.320Z,9.20
2022-11-05T18:06:40.861Z,9.20
2022-11-05T18:11:43.283Z,9.40
2022-11-05T18:16:45.258Z,9.50
2022-11-05T18:21:46.975Z,9.60
2022-11-05T18:26:49.355Z,9.60
2022-11-05T18:31:51.100Z,9.60
2022-11-05T18:36:56.377Z,9.50
2022-11-05T18:41:58.484Z,9.50
2022-11-05T18:47:00.285Z,9.50
2022-11-05T18:52:02.598Z,9.50
2022-11-05T18:57:04.447Z,9.50
2022-11-05T19:02:07.579Z,9.60
2022-11-05T19:07:09.604Z,9.60
2022-11-05T19:12:11.342Z,9.60
2022-11-05T19:17:13.169Z,9.70
2022-11-05T19:22:14.895Z,9.70
2022-11-05T19:27:16.746Z,9.70
2022-11-05T19:32:18.464Z,9.50
2022-11-05T19:37:20.220Z,9.60
2022-11-05T19:42:21.939Z,9.50
2022-11-05T19:47:23.743Z,9.30
2022-11-05T19:52:25.517Z,9.10
2022-11-05T19:57:27.305Z,9.00
2022-11-05T20:02:29.075Z,8.90
2022-11-05T20:07:31.050Z,8.60
2022-11-05T20:12:33.102Z,8.70
2022-11-05T20:17:34.884Z,8.40
2022-11-05T20:22:36.661Z,8.20
2022-11-05T20:27:38.742Z,8.20
2022-11-05T20:32:40.436Z,8.30
2022-11-05T20:37:42.188Z,8.40
2022-11-05T20:42:44.472Z,8.40
2022-11-05T20:47:46.213Z,8.20
2022-11-05T20:52:47.961Z,7.90
2022-11-05T20:57:49.776Z,8.00
2022-11-05T21:02:51.634Z,8.10
2022-11-05T21:07:53.475Z,8.40
2022-11-05T21:12:55.240Z,8.40
2022-11-05T21:17:57.069Z,8.40
2022-11-05T21:22:58.978Z,8.30
2022-11-05T21:28:00.746Z,8.30
2022-11-05T21:33:03.454Z,8.40
2022-11-05T21:38:05.214Z,8.30
2022-11-05T21:43:07.825Z,8.30
2022-11-05T21:48:10.219Z,8.30
2022-11-05T21:53:33.246Z,8.00
2022-11-05T21:58:53.576Z,7.80
2022-11-05T22:04:00.278Z,8.00
2022-11-05T22:09:04.504Z,8.20
2022-11-05T22:14:06.319Z,8.20
2022-11-05T22:19:08.035Z,8.20
2022-11-05T22:24:09.922Z,8.00
2022-11-05T22:29:12.843Z,8.10
2022-11-05T22:34:14.596Z,8.10
2022-11-05T22:39:16.718Z,8.10
2022-11-05T22:44:18.424Z,7.90
2022-11-05T22:49:20.266Z,7.70
2022-11-05T22:54:21.991Z,7.40
2022-11-05T22:59:23.936Z,7.50
2022-11-05T23:04:25.657Z,7.60
2022-11-05T23:09:52.086Z,7.20
2022-11-05T23:14:54.925Z,7.30
2022-11-05T23:20:15.277Z,7.40
2022-11-05T23:25:22.161Z,7.40
2022-11-05T23:30:26.168Z,7.50
2022-11-05T23:35:47.654Z,7.60
2022-11-05T23:41:07.998Z,7.40
2022-11-05T23:46:28.421Z,7.50
2022-11-05T23:51:30.132Z,7.50
2022-11-05T23:56:32.222Z,7.40
